FW0730 Weather Reports


Display with metric or nautical units.
time (UTC)temp
F
wind
direction
speed
MPH
gust
MPH
rain 1hr
in
rain 24hr
in
rain mn
in
humidity
%
barometer
mb
20210920213017 82 0.0 1.0 0.00 0.00 0.00 66 1019.5
20210920212017 82 0.0 1.0 0.00 0.00 0.00 65 1019.5
20210920211016 82 0.0 1.0 0.00 0.00 0.00 65 1019.5
20210920210017 82 0.0 2.0 0.00 0.00 0.00 65 1019.5
20210920205017 83 45 1.0 5.0 0.00 0.00 0.00 64 1019.6
20210920204017 82 0.0 3.0 0.00 0.00 0.00 63 1019.6
20210920203017 83 0.0 2.0 0.00 0.00 0.00 63 1019.6
20210920202017 83 113 1.0 3.0 0.00 0.00 0.00 63 1019.5
20210920201017 83 135 1.0 3.0 0.00 0.00 0.00 63 1019.6
20210920200017 83 135 1.0 4.0 0.00 0.00 0.00 62 1019.7
20210920195017 84 158 3.0 7.0 0.00 0.00 0.00 61 1019.7
20210920194017 84 158 1.0 7.0 0.00 0.00 0.00 60 1019.8
20210920193017 84 158 2.0 7.0 0.00 0.00 0.00 62 1019.9
20210920192017 83 158 2.0 5.0 0.00 0.00 0.00 63 1020.0
20210920191017 83 0.0 2.0 0.00 0.00 0.00 65 1020.2
20210920190017 83 158 2.0 8.0 0.00 0.00 0.00 63 1020.2
20210920185017 83 158 1.0 4.0 0.00 0.00 0.00 64 1020.2
20210920184017 85 113 1.0 3.0 0.00 0.00 0.00 62 1020.4
20210920183017 84 135 1.0 8.0 0.00 0.00 0.00 65 1020.5
20210920182017 83 135 1.0 5.0 0.00 0.00 0.00 64 1020.7
20210920181017 85 158 1.0 4.0 0.00 0.00 0.00 62 1020.8
20210920180017 82 203 1.0 2.0 0.00 0.00 0.00 66 1020.9
20210920175015 82 135 2.0 9.0 0.00 0.00 0.00 65 1021.0
20210920174015 83 23 2.0 7.0 0.00 0.00 0.00 64 1021.2
20210920173015 85 158 2.0 7.0 0.00 0.00 0.00 63 1021.2
20210920172015 83 135 1.0 4.0 0.00 0.00 0.00 67 1021.3
20210920171015 83 158 3.0 10.0 0.00 0.00 0.00 67 1021.4
20210920170015 82 158 2.0 7.0 0.00 0.00 0.00 68 1021.5
20210920165015 81 158 3.0 10.0 0.00 0.00 0.00 71 1021.6
20210920164015 80 158 3.0 9.0 0.00 0.00 0.00 71 1021.7
20210920163015 80 158 2.0 7.0 0.00 0.00 0.00 73 1021.7
20210920162015 80 158 1.0 5.0 0.00 0.00 0.00 75 1021.8
20210920161015 79 158 2.0 6.0 0.00 0.00 0.00 76 1021.9
20210920160015 78 158 1.0 7.0 0.00 0.00 0.00 76 1022.0
20210920155015 78 158 2.0 7.0 0.00 0.00 0.00 78 1022.3
20210920154015 77 135 1.0 3.0 0.00 0.00 0.00 80 1022.1
20210920153015 77 135 1.0 5.0 0.00 0.00 0.00 80 1022.1
20210920152015 78 113 1.0 8.0 0.00 0.00 0.00 79 1022.1
20210920151015 77 135 1.0 4.0 0.00 0.00 0.00 83 1022.1
20210920150015 76 180 1.0 4.0 0.00 0.00 0.00 83 1022.1
20210920145015 76 0.0 2.0 0.00 0.00 0.00 84 1022.0
20210920144015 75 0.0 2.0 0.00 0.00 0.00 86 1022.1
20210920143015 75 158 1.0 6.0 0.00 0.00 0.00 87 1022.0
20210920142015 74 113 1.0 3.0 0.00 0.00 0.00 88 1022.0
20210920141015 74 158 1.0 4.0 0.00 0.00 0.00 88 1021.9
20210920140015 74 135 1.0 2.0 0.00 0.00 0.00 89 1021.9
20210920135015 73 113 1.0 3.0 0.00 0.00 0.00 90 1021.8
20210920134015 73 158 1.0 8.0 0.00 0.00 0.00 93 1021.8
20210920133015 72 0.0 3.0 0.00 0.00 0.00 94 1021.5
20210920132015 72 0.0 2.0 0.00 0.00 0.00 95 1021.5
20210920131015 71 0.0 2.0 0.00 0.00 0.00 96 1021.4
20210920130015 71 158 1.0 2.0 0.00 0.00 0.00 95 1021.4
20210920125015 71 0.0 3.0 0.00 0.00 0.00 96 1021.3
20210920124015 70 0.0 2.0 0.00 0.00 0.00 96 1021.3
20210920123015 70 0.0 1.0 0.00 0.00 0.00 96 1021.2
20210920122015 69 0.0 2.0 0.00 0.00 0.00 96 1021.4
20210920121015 69 0.0 1.0 0.00 0.00 0.00 96 1021.3
20210920120015 68 0.0 1.0 0.00 0.00 0.00 96 1021.0
20210920115015 68 0.0 1.0 0.00 0.00 0.00 96 1021.1
20210920114015 67 0.0 1.0 0.00 0.00 0.00 96 1021.0
20210920113015 66 0.0 0.0 0.00 0.00 0.00 96 1021.0
20210920112015 65 0.0 0.0 0.00 0.00 0.00 95 1020.8
20210920111015 66 0.0 1.0 0.00 0.00 0.00 96 1020.8
20210920110015 65 0.0 0.0 0.00 0.00 0.00 95 1020.7
20210920105015 65 0.0 0.0 0.00 0.00 0.00 96 1020.7
20210920104015 65 0.0 0.0 0.00 0.00 0.00 95 1020.6
20210920103015 65 0.0 0.0 0.00 0.00 0.00 95 1020.6
20210920102015 65 0.0 1.0 0.00 0.00 0.00 95 1020.4
20210920101015 65 0.0 0.0 0.00 0.00 0.00 95 1020.3
20210920100015 65 0.0 0.0 0.00 0.00 0.00 95 1020.3
20210920095015 65 0.0 0.0 0.00 0.00 0.00 95 1020.2
20210920094015 65 0.0 0.0 0.00 0.00 0.00 95 1020.1
20210920093015 65 0.0 0.0 0.00 0.00 0.00 95 1020.2
20210920092015 65 0.0 0.0 0.00 0.00 0.00 95 1020.1
20210920091015 66 0.0 0.0 0.00 0.00 0.00 95 1020.1
20210920090015 65 0.0 0.0 0.00 0.00 0.00 95 1020.0
20210920085015 66 0.0 0.0 0.00 0.00 0.00 95 1020.1
20210920084015 66 0.0 0.0 0.00 0.00 0.00 95 1020.1
20210920083015 66 0.0 0.0 0.00 0.00 0.00 95 1020.1
20210920082015 66 0.0 0.0 0.00 0.00 0.00 95 1020.1
20210920081015 66 0.0 0.0 0.00 0.00 0.00 95 1020.1
20210920080015 67 0.0 0.0 0.00 0.00 0.00 95 1020.1
20210920075015 67 0.0 0.0 0.00 0.00 0.00 95 1020.1
20210920074015 67 0.0 0.0 0.00 0.00 0.00 95 1020.0
20210920073015 67 0.0 0.0 0.00 0.00 0.00 94 1019.9
20210920072016 67 0.0 1.0 0.00 0.00 0.00 94 1019.9
20210920071015 67 0.0 0.0 0.00 0.00 0.00 94 1020.0
20210920070015 68 0.0 0.0 0.00 0.00 0.00 94 1020.1
20210920065015 67 0.0 0.0 0.00 0.00 0.00 94 1020.0
20210920064015 67 0.0 0.0 0.00 0.00 0.00 94 1020.2
20210920063016 68 0.0 0.0 0.00 0.00 0.00 94 1020.2
20210920062015 68 0.0 0.0 0.00 0.00 0.00 94 1020.3
20210920061015 68 0.0 0.0 0.00 0.00 0.00 94 1020.3
20210920060015 68 0.0 0.0 0.00 0.00 0.00 94 1020.3
20210920055016 68 0.0 1.0 0.00 0.00 0.00 94 1020.3
20210920054015 68 0.0 0.0 0.00 0.00 0.00 93 1020.2
20210920053015 68 0.0 0.0 0.00 0.00 0.00 93 1020.2
20210920052015 69 0.0 0.0 0.00 0.00 0.00 93 1020.2
20210920051016 69 0.0 0.0 0.00 0.00 0.00 93 1020.1
20210920050015 69 0.0 0.0 0.00 0.00 0.00 93 1020.1
20210920045015 69 0.0 0.0 0.00 0.00 0.00 93 1020.2
20210920044016 69 0.0 0.0 0.00 0.00 0.00 93 1020.3
20210920043016 69 0.0 0.0 0.00 0.00 0.00 92 1020.3
20210920042015 70 0.0 0.0 0.00 0.00 0.00 92 1020.2
20210920041515 70 0.0 0.0 0.00 0.00 0.00 92 1020.2
20210920040516 70 0.0 0.0 0.00 0.00 0.00 91 1020.1
20210920035516 70 0.0 0.0 0.00 0.00 0.00 91 1020.1
20210920034516 70 0.0 0.0 0.00 0.00 0.00 91 1020.0
20210920033516 71 0.0 0.0 0.00 0.00 0.00 90 1019.9
20210920032516 71 0.0 1.0 0.00 0.00 0.00 90 1019.9
20210920031516 71 0.0 0.0 0.00 0.00 0.00 90 1019.7
20210920030516 71 0.0 0.0 0.00 0.00 0.00 89 1019.6
20210920025516 71 0.0 0.0 0.00 0.00 0.00 89 1019.6
20210920024516 71 0.0 0.0 0.00 0.00 0.00 89 1019.4
20210920023516 72 0.0 0.0 0.00 0.00 0.00 88 1019.5
20210920022516 72 0.0 0.0 0.00 0.00 0.00 88 1019.3
20210920021516 72 0.0 0.0 0.00 0.00 0.00 88 1019.2
20210920020516 72 0.0 0.0 0.00 0.00 0.00 87 1019.1
20210920015516 72 0.0 0.0 0.00 0.00 0.00 87 1019.0
20210920014516 72 0.0 0.0 0.00 0.00 0.00 88 1019.0
20210920013516 72 0.0 0.0 0.00 0.00 0.00 87 1018.9
20210920012516 73 0.0 0.0 0.00 0.00 0.00 87 1018.7
20210920011517 73 0.0 0.0 0.00 0.00 0.00 86 1018.5
20210920010516 73 0.0 0.0 0.00 0.00 0.00 86 1018.4
20210920005516 73 0.0 0.0 0.00 0.00 0.00 85 1018.3
20210920004516 74 0.0 0.0 0.00 0.00 0.00 84 1018.1
20210920003516 74 0.0 0.0 0.00 0.00 0.00 82 1018.0
20210920002516 75 0.0 0.0 0.00 0.00 0.00 80 1018.0
20210920001516 76 0.0 0.0 0.00 0.00 0.00 79 1018.0
20210920000517 76 0.0 0.0 0.00 0.00 0.00 79 1017.9
20210919235516 77 0.0 0.0 0.00 0.00 0.00 79 1017.8
20210919234516 78 0.0 0.0 0.00 0.00 0.00 77 1017.9
20210919233517 78 0.0 0.0 0.00 0.00 0.00 75 1017.9
20210919232516 79 0.0 0.0 0.00 0.00 0.00 74 1017.9
20210919231516 80 0.0 0.0 0.00 0.00 0.00 71 1017.9
20210919230517 81 0.0 0.0 0.00 0.00 0.00 69 1017.9
20210919225517 82 0.0 1.0 0.00 0.00 0.00 68 1017.7
20210919224517 83 0.0 0.0 0.00 0.00 0.00 67 1017.7
20210919223517 84 0.0 1.0 0.00 0.00 0.00 65 1017.8
20210919222517 84 0.0 1.0 0.00 0.00 0.00 64 1017.8
20210919221517 85 90 1.0 2.0 0.00 0.00 0.00 63 1017.8
20210919220516 85 158 1.0 2.0 0.00 0.00 0.00 62 1017.7
20210919215517 85 0.0 3.0 0.00 0.00 0.00 62 1017.6
20210919214516 86 0.0 0.0 0.00 0.00 0.00 62 1017.5
20210919213517 86 0.0 1.0 0.00 0.00 0.00 61 1017.6